Time;durP1;ratioP1;P1;durP2;ratioP2;P2;SDS_P1;SDS_P2;PMS_P1;PMS_P2;Temp;Humidity;BMP_temperature;BMP_pressure;BME280_temperature;BME280_humidity;BME280_pressure;Samples;Min_cycle;Max_cycle;Signal;HPM_P1;HPM_P2
2022/11/29 00:01:23;;;;;;;14.80;9.23;;;;;;;;;;5023076;28;20056;-83
2022/11/29 00:03:50;;;;;;;14.27;9.10;;;;;;;;;;5048209;28;20044;-83
2022/11/29 00:06:19;;;;;;;17.35;10.80;;;;;;;;;;5045872;28;20564;-83
2022/11/29 00:08:45;;;;;;;12.40;7.53;;;;;;;;;;5032492;28;20063;-83
2022/11/29 00:12:10;;;;;;;18.15;10.50;;;;;;;;;;5020501;28;20021;-83
2022/11/29 00:14:02;;;;;;;16.48;11.50;;;;;;;;;;5051794;28;20044;-83
2022/11/29 00:16:28;;;;;;;22.67;13.18;;;;;;;;;;5038895;28;20056;-83
2022/11/29 00:18:54;;;;;;;20.65;13.02;;;;;;;;;;5031671;28;20048;-83
2022/11/29 00:21:20;;;;;;;23.23;15.35;;;;;;;;;;5052774;28;20063;-83
2022/11/29 00:23:46;;;;;;;17.27;11.43;;;;;;;;;;5034317;28;20166;-83
2022/11/29 00:26:15;;;;;;;16.83;11.88;;;;;;;;;;5045416;28;20029;-83
2022/11/29 00:28:41;;;;;;;20.65;12.38;;;;;;;;;;5051141;28;20037;-83
2022/11/29 00:31:18;;;;;;;19.40;13.05;;;;;;;;;;5052773;28;20021;-83
2022/11/29 00:33:44;;;;;;;20.23;14.15;;;;;;;;;;5050038;28;20037;-83
2022/11/29 00:36:11;;;;;;;22.63;15.25;;;;;;;;;;5035025;28;20513;-83
2022/11/29 00:38:37;;;;;;;22.20;15.60;;;;;;;;;;5034363;28;20036;-83
2022/11/29 00:41:03;;;;;;;24.35;16.88;;;;;;;;;;5053242;28;20103;-83
2022/11/29 00:43:29;;;;;;;25.45;17.80;;;;;;;;;;5052084;28;20060;-83
2022/11/29 00:45:55;;;;;;;28.27;19.80;;;;;;;;;;5032943;28;20091;-83
2022/11/29 00:48:21;;;;;;;25.35;17.50;;;;;;;;;;5034032;28;20079;-83
2022/11/29 00:50:48;;;;;;;26.52;19.67;;;;;;;;;;5051965;28;20032;-82
2022/11/29 00:53:14;;;;;;;23.77;16.88;;;;;;;;;;5038905;28;20033;-83
2022/11/29 00:55:40;;;;;;;28.50;20.15;;;;;;;;;;5034413;28;20047;-83
2022/11/29 00:58:06;;;;;;;30.15;23.63;;;;;;;;;;5052390;28;20037;-83
2022/11/29 01:00:32;;;;;;;26.63;18.67;;;;;;;;;;5038278;28;20032;-83
2022/11/29 01:02:58;;;;;;;23.95;17.83;;;;;;;;;;5045784;28;20033;-83
2022/11/29 01:05:24;;;;;;;27.15;20.02;;;;;;;;;;5051335;28;20063;-83
2022/11/29 01:07:50;;;;;;;27.52;19.65;;;;;;;;;;5047352;28;20041;-83
2022/11/29 01:10:16;;;;;;;26.92;20.38;;;;;;;;;;5045686;28;20024;-82
2022/11/29 01:12:42;;;;;;;26.05;19.00;;;;;;;;;;5032764;28;20037;-82
2022/11/29 01:15:08;;;;;;;24.90;18.17;;;;;;;;;;5050986;28;20471;-82
2022/11/29 01:17:35;;;;;;;23.42;18.63;;;;;;;;;;5048148;28;20147;-82
2022/11/29 01:20:01;;;;;;;28.73;20.83;;;;;;;;;;5035467;28;20478;-82
2022/11/29 01:22:27;;;;;;;28.08;19.85;;;;;;;;;;5052086;28;20142;-82
2022/11/29 01:24:53;;;;;;;28.55;20.40;;;;;;;;;;5033146;28;20552;-82
2022/11/29 01:27:19;;;;;;;23.00;15.88;;;;;;;;;;5033430;28;20057;-82
2022/11/29 01:29:45;;;;;;;25.92;16.77;;;;;;;;;;5051119;28;20102;-82
2022/11/29 01:32:11;;;;;;;21.90;16.08;;;;;;;;;;5033748;28;20478;-82
2022/11/29 01:34:38;;;;;;;24.42;15.60;;;;;;;;;;5051545;28;20036;-82
2022/11/29 01:37:04;;;;;;;13.20;8.90;;;;;;;;;;5033135;28;20047;-82
2022/11/29 01:39:30;;;;;;;10.70;5.95;;;;;;;;;;5033060;28;20462;-82
2022/11/29 01:41:56;;;;;;;12.70;5.80;;;;;;;;;;5031501;28;20037;-82
2022/11/29 01:44:22;;;;;;;10.43;5.18;;;;;;;;;;5048007;28;20040;-82
2022/11/29 01:46:48;;;;;;;11.85;4.18;;;;;;;;;;5033485;28;20033;-82
2022/11/29 01:49:20;;;;;;;8.50;3.85;;;;;;;;;;5051445;28;20366;-82
2022/11/29 01:51:57;;;;;;;12.18;4.18;;;;;;;;;;5041283;28;20030;-82
2022/11/29 01:54:23;;;;;;;5.47;2.67;;;;;;;;;;5030262;28;20144;-82
2022/11/29 01:56:51;;;;;;;9.88;3.38;;;;;;;;;;5032589;28;20510;-82
2022/11/29 01:59:19;;;;;;;7.70;2.75;;;;;;;;;;5050550;28;20101;-82
2022/11/29 02:01:45;;;;;;;5.20;2.65;;;;;;;;;;5050567;28;20032;-82
2022/11/29 02:04:11;;;;;;;5.00;2.15;;;;;;;;;;5042720;28;20157;-81
2022/11/29 02:06:38;;;;;;;8.35;2.90;;;;;;;;;;5035606;28;20029;-82
2022/11/29 02:09:04;;;;;;;5.15;2.53;;;;;;;;;;5033052;28;20040;-82
2022/11/29 02:11:52;;;;;;;5.32;2.53;;;;;;;;;;5022643;28;20502;-82
2022/11/29 02:14:34;;;;;;;5.53;3.00;;;;;;;;;;5026070;28;20041;-82
2022/11/29 02:17:20;;;;;;;6.27;2.80;;;;;;;;;;5029276;28;20029;-82
2022/11/29 02:20:12;;;;;;;6.45;3.20;;;;;;;;;;5022989;28;20125;-82
2022/11/29 02:22:45;;;;;;;7.93;2.97;;;;;;;;;;5003375;28;20037;-82
2022/11/29 02:25:11;;;;;;;6.75;3.63;;;;;;;;;;5050121;28;20051;-81
2022/11/29 02:27:40;;;;;;;7.00;2.90;;;;;;;;;;5032057;28;20045;-82
2022/11/29 02:30:06;;;;;;;4.60;2.60;;;;;;;;;;5040806;28;20037;-82
2022/11/29 02:32:38;;;;;;;6.20;3.10;;;;;;;;;;5049793;28;20033;-82
2022/11/29 02:35:07;;;;;;;6.15;2.92;;;;;;;;;;5034423;28;20818;-82
2022/11/29 02:37:39;;;;;;;7.22;3.28;;;;;;;;;;5048509;28;20029;-82
2022/11/29 02:40:14;;;;;;;8.27;3.97;;;;;;;;;;5040309;28;20048;-82
2022/11/29 02:42:49;;;;;;;6.35;4.15;;;;;;;;;;5049960;28;20036;-81
2022/11/29 02:45:18;;;;;;;8.68;4.35;;;;;;;;;;5047851;28;20040;-81
2022/11/29 02:47:56;;;;;;;7.45;4.80;;;;;;;;;;5049647;28;20058;-82
2022/11/29 02:50:31;;;;;;;8.02;4.70;;;;;;;;;;5031929;28;20029;-82
2022/11/29 02:53:07;;;;;;;8.82;5.28;;;;;;;;;;5049085;28;20712;-82
2022/11/29 02:55:45;;;;;;;13.00;7.30;;;;;;;;;;5049260;28;20112;-82
2022/11/29 02:58:11;;;;;;;11.68;8.20;;;;;;;;;;5031150;28;20123;-82
2022/11/29 03:00:41;;;;;;;12.32;8.10;;;;;;;;;;5042145;28;20061;-82
2022/11/29 03:03:16;;;;;;;15.52;9.88;;;;;;;;;;5016831;28;20041;-81
2022/11/29 03:05:43;;;;;;;15.10;9.73;;;;;;;;;;5045413;28;20045;-82
2022/11/29 03:08:28;;;;;;;13.88;10.10;;;;;;;;;;5031483;28;20079;-82
2022/11/29 03:11:13;;;;;;;12.98;9.35;;;;;;;;;;5049210;28;20075;-82
2022/11/29 03:13:51;;;;;;;14.30;8.32;;;;;;;;;;5017188;28;20041;-82
2022/11/29 03:16:17;;;;;;;12.57;9.10;;;;;;;;;;5049453;28;20103;-81
2022/11/29 03:18:49;;;;;;;15.93;10.02;;;;;;;;;;5046981;28;20414;-82
2022/11/29 03:21:21;;;;;;;16.17;10.73;;;;;;;;;;5030917;28;20028;-82
2022/11/29 03:23:53;;;;;;;9.82;6.90;;;;;;;;;;5049774;28;20033;-81
2022/11/29 03:26:38;;;;;;;11.68;5.35;;;;;;;;;;5046043;28;20035;-81
2022/11/29 03:29:22;;;;;;;7.60;5.15;;;;;;;;;;5046577;28;20052;-82
2022/11/29 03:31:51;;;;;;;8.98;5.38;;;;;;;;;;5043907;28;20025;-82
2022/11/29 03:34:30;;;;;;;7.43;3.60;;;;;;;;;;5049922;28;20120;-82
2022/11/29 03:37:00;;;;;;;6.38;3.63;;;;;;;;;;5048122;28;20031;-82
2022/11/29 03:39:44;;;;;;;8.30;3.85;;;;;;;;;;5029922;28;20541;-82
2022/11/29 03:42:13;;;;;;;8.20;5.03;;;;;;;;;;5046486;28;20041;-81
2022/11/29 03:44:42;;;;;;;7.40;4.00;;;;;;;;;;5031186;28;20041;-81
2022/11/29 03:47:13;;;;;;;8.57;4.15;;;;;;;;;;5048064;28;20083;-82
2022/11/29 03:49:42;;;;;;;11.57;6.97;;;;;;;;;;5031733;28;20842;-82
2022/11/29 03:52:08;;;;;;;14.25;8.80;;;;;;;;;;5048587;28;20037;-81
2022/11/29 03:54:46;;;;;;;13.93;7.65;;;;;;;;;;5050600;28;20033;-81
2022/11/29 03:57:15;;;;;;;11.40;5.88;;;;;;;;;;5035091;28;20022;-81
2022/11/29 03:59:54;;;;;;;8.07;4.25;;;;;;;;;;5043581;28;20045;-81
2022/11/29 04:02:29;;;;;;;6.57;3.92;;;;;;;;;;5049235;28;20551;-81
2022/11/29 04:04:55;;;;;;;6.63;3.55;;;;;;;;;;5037139;28;20064;-82
2022/11/29 04:07:40;;;;;;;8.27;3.92;;;;;;;;;;5037752;28;20036;-82
2022/11/29 04:10:19;;;;;;;14.55;5.25;;;;;;;;;;5047983;28;20045;-81
2022/11/29 04:13:04;;;;;;;11.82;6.10;;;;;;;;;;5052518;28;20045;-81
2022/11/29 04:15:45;;;;;;;11.20;5.68;;;;;;;;;;5048091;28;20021;-82
2022/11/29 04:18:11;;;;;;;8.65;3.88;;;;;;;;;;5046516;28;20175;-81
2022/11/29 04:20:50;;;;;;;8.30;3.80;;;;;;;;;;5048275;28;20818;-81
2022/11/29 04:23:34;;;;;;;10.05;5.65;;;;;;;;;;5045814;28;20903;-81
2022/11/29 04:26:19;;;;;;;8.75;6.10;;;;;;;;;;5033510;28;20035;-81
2022/11/29 04:28:54;;;;;;;9.30;5.20;;;;;;;;;;5041064;28;20497;-82
2022/11/29 04:31:34;;;;;;;10.27;5.93;;;;;;;;;;5030268;28;20083;-81
2022/11/29 04:33:59;;;;;;;9.38;6.22;;;;;;;;;;5042722;28;20029;-81
2022/11/29 04:36:25;;;;;;;13.23;8.20;;;;;;;;;;5047893;28;20024;-81
2022/11/29 04:39:10;;;;;;;19.35;12.27;;;;;;;;;;5048798;28;20084;-81
2022/11/29 04:41:36;;;;;;;17.13;10.88;;;;;;;;;;5038981;28;20092;-81
2022/11/29 04:44:11;;;;;;;14.00;9.32;;;;;;;;;;5057125;28;20152;-81
2022/11/29 04:46:59;;;;;;;11.80;7.03;;;;;;;;;;5050600;28;20025;-81
2022/11/29 04:49:35;;;;;;;9.80;5.13;;;;;;;;;;5044600;28;20037;-81
2022/11/29 04:52:01;;;;;;;13.98;7.95;;;;;;;;;;5021478;28;20032;-81
2022/11/29 04:54:32;;;;;;;13.63;7.03;;;;;;;;;;5050934;28;20676;-81
2022/11/29 04:57:05;;;;;;;10.73;6.20;;;;;;;;;;5051226;28;20702;-81
2022/11/29 04:59:51;;;;;;;12.02;7.65;;;;;;;;;;5047177;28;20090;-81
2022/11/29 05:02:23;;;;;;;11.43;7.45;;;;;;;;;;5050524;28;20063;-82
2022/11/29 05:04:55;;;;;;;13.77;7.78;;;;;;;;;;5051508;28;20068;-81
2022/11/29 05:07:29;;;;;;;11.55;6.80;;;;;;;;;;5053325;28;20547;-81
2022/11/29 05:09:58;;;;;;;10.60;6.10;;;;;;;;;;5046513;28;20037;-81
2022/11/29 05:12:32;;;;;;;8.60;4.57;;;;;;;;;;5049397;28;20486;-81
2022/11/29 05:15:17;;;;;;;7.28;3.80;;;;;;;;;;5042816;28;20033;-81
2022/11/29 05:17:58;;;;;;;9.95;4.55;;;;;;;;;;5046084;28;20104;-82
2022/11/29 05:20:33;;;;;;;6.53;3.42;;;;;;;;;;5047484;28;20745;-81
2022/11/29 05:23:02;;;;;;;6.15;3.00;;;;;;;;;;5050823;28;20029;-81
2022/11/29 05:25:57;;;;;;;5.50;2.85;;;;;;;;;;5014468;28;20035;-81
2022/11/29 05:28:38;;;;;;;6.88;3.83;;;;;;;;;;5024764;28;20045;-81
2022/11/29 05:31:23;;;;;;;9.73;4.13;;;;;;;;;;5038973;28;20410;-81
2022/11/29 05:33:52;;;;;;;9.52;4.68;;;;;;;;;;5051555;28;20043;-81
2022/11/29 05:36:27;;;;;;;8.27;5.28;;;;;;;;;;5050578;28;20524;-81
2022/11/29 05:39:11;;;;;;;7.50;4.40;;;;;;;;;;5051543;28;20466;-81
2022/11/29 05:41:37;;;;;;;8.73;5.25;;;;;;;;;;5047622;28;20120;-81
2022/11/29 05:44:19;;;;;;;15.57;6.72;;;;;;;;;;5028458;28;20076;-81
2022/11/29 05:46:56;;;;;;;13.32;8.13;;;;;;;;;;5050837;28;20024;-81
2022/11/29 05:49:33;;;;;;;18.33;9.63;;;;;;;;;;5032368;28;20144;-81
2022/11/29 05:52:05;;;;;;;19.52;11.23;;;;;;;;;;5041680;28;20493;-81
2022/11/29 05:54:40;;;;;;;16.92;10.63;;;;;;;;;;5049908;28;20037;-81
2022/11/29 05:57:06;;;;;;;15.15;8.50;;;;;;;;;;5044801;28;20542;-81
2022/11/29 05:59:33;;;;;;;10.50;6.30;;;;;;;;;;5050813;28;20136;-81
2022/11/29 06:02:23;;;;;;;11.50;6.43;;;;;;;;;;5049472;28;20064;-81
2022/11/29 06:05:00;;;;;;;10.00;6.30;;;;;;;;;;5050239;28;20056;-81
2022/11/29 06:07:39;;;;;;;11.30;5.85;;;;;;;;;;5049022;28;20040;-80
2022/11/29 06:10:06;;;;;;;9.35;5.00;;;;;;;;;;5050024;28;20041;-81
2022/11/29 06:12:34;;;;;;;10.82;5.78;;;;;;;;;;5050772;28;20033;-81
2022/11/29 06:15:14;;;;;;;11.15;5.57;;;;;;;;;;5045407;28;20035;-81
2022/11/29 06:17:40;;;;;;;13.60;7.90;;;;;;;;;;5054661;28;20107;-80
2022/11/29 06:20:25;;;;;;;12.80;6.15;;;;;;;;;;5044706;28;20060;-80
2022/11/29 06:23:05;;;;;;;22.92;12.48;;;;;;;;;;5051312;28;20464;-80
2022/11/29 06:25:36;;;;;;;20.15;12.68;;;;;;;;;;5049624;28;20044;-80
2022/11/29 06:28:03;;;;;;;18.15;10.55;;;;;;;;;;5054278;28;20033;-80
2022/11/29 06:30:32;;;;;;;18.95;10.85;;;;;;;;;;5049178;28;20079;-79
2022/11/29 06:33:01;;;;;;;17.70;9.65;;;;;;;;;;5048254;28;20064;-78
2022/11/29 06:35:35;;;;;;;18.23;9.38;;;;;;;;;;5048527;28;20052;-79
2022/11/29 06:38:04;;;;;;;14.00;8.68;;;;;;;;;;5049830;28;20241;-80
2022/11/29 06:40:31;;;;;;;15.35;9.05;;;;;;;;;;5044749;28;20037;-81
2022/11/29 06:42:58;;;;;;;15.77;10.27;;;;;;;;;;5048630;28;20021;-80
2022/11/29 06:45:24;;;;;;;15.45;8.68;;;;;;;;;;5045318;28;20359;-81
2022/11/29 06:47:53;;;;;;;17.10;9.80;;;;;;;;;;5049526;28;20033;-81
2022/11/29 06:50:19;;;;;;;17.67;10.23;;;;;;;;;;5047341;28;20064;-81
2022/11/29 06:52:45;;;;;;;20.13;11.48;;;;;;;;;;5054492;28;20666;-80
2022/11/29 06:55:22;;;;;;;18.52;10.02;;;;;;;;;;5041831;28;20037;-80
2022/11/29 06:57:58;;;;;;;16.20;10.40;;;;;;;;;;5048772;28;20104;-80
2022/11/29 07:00:43;;;;;;;20.63;10.48;;;;;;;;;;5032295;28;20041;-81
2022/11/29 07:03:17;;;;;;;15.35;11.07;;;;;;;;;;5047614;28;20041;-81
2022/11/29 07:05:45;;;;;;;20.23;12.10;;;;;;;;;;5047703;28;20048;-80
2022/11/29 07:08:18;;;;;;;20.13;12.73;;;;;;;;;;5046674;28;20060;-81
2022/11/29 07:10:48;;;;;;;16.65;11.30;;;;;;;;;;5043105;28;20037;-80
2022/11/29 07:13:14;;;;;;;22.98;13.13;;;;;;;;;;5049621;28;20033;-80
2022/11/29 07:15:45;;;;;;;26.67;17.52;;;;;;;;;;5049509;28;20029;-80
2022/11/29 07:18:27;;;;;;;23.08;15.07;;;;;;;;;;5050137;28;20035;-80
2022/11/29 07:21:02;;;;;;;21.52;12.65;;;;;;;;;;5022050;28;20060;-80
2022/11/29 07:23:54;;;;;;;21.88;10.82;;;;;;;;;;5048333;28;20040;-80
2022/11/29 07:26:35;;;;;;;21.48;10.48;;;;;;;;;;4993537;28;20155;-80
2022/11/29 07:29:13;;;;;;;18.20;11.75;;;;;;;;;;5049304;28;20115;-80
2022/11/29 07:31:41;;;;;;;24.38;15.20;;;;;;;;;;5048589;28;20053;-80
2022/11/29 07:34:11;;;;;;;26.77;16.33;;;;;;;;;;5049259;28;20447;-80
2022/11/29 07:36:47;;;;;;;20.73;12.13;;;;;;;;;;5048166;28;20592;-80
2022/11/29 07:39:12;;;;;;;20.05;12.77;;;;;;;;;;5048686;28;20037;-80
2022/11/29 07:41:57;;;;;;;17.85;10.73;;;;;;;;;;5047370;28;20747;-80
2022/11/29 07:44:23;;;;;;;22.10;11.73;;;;;;;;;;5048750;28;20040;-80
2022/11/29 07:46:49;;;;;;;25.33;15.02;;;;;;;;;;5037415;28;20029;-80
2022/11/29 07:49:15;;;;;;;25.45;16.77;;;;;;;;;;5048609;28;20044;-80
2022/11/29 07:51:41;;;;;;;28.13;16.35;;;;;;;;;;5043372;28;20041;-80
2022/11/29 07:54:09;;;;;;;28.42;16.88;;;;;;;;;;5031347;28;20435;-80
2022/11/29 07:56:35;;;;;;;28.42;16.33;;;;;;;;;;5048734;28;20033;-80
2022/11/29 07:59:01;;;;;;;21.98;15.32;;;;;;;;;;5047664;28;20021;-80
2022/11/29 08:01:27;;;;;;;24.58;14.27;;;;;;;;;;5030379;28;20112;-81
2022/11/29 08:03:53;;;;;;;20.73;14.23;;;;;;;;;;5025925;28;20435;-80
2022/11/29 08:06:24;;;;;;;22.58;15.07;;;;;;;;;;5031066;28;20060;-80
2022/11/29 08:08:50;;;;;;;24.00;14.57;;;;;;;;;;5046984;28;20039;-80
2022/11/29 08:11:16;;;;;;;18.55;12.48;;;;;;;;;;5047839;28;20866;-80
2022/11/29 08:13:42;;;;;;;22.38;13.10;;;;;;;;;;5047577;28;20110;-81
2022/11/29 08:16:08;;;;;;;19.90;13.75;;;;;;;;;;5055456;28;20730;-80
2022/11/29 08:18:35;;;;;;;21.40;13.75;;;;;;;;;;5045962;28;20033;-81
2022/11/29 08:21:05;;;;;;;22.52;13.85;;;;;;;;;;5052003;28;20083;-81
2022/11/29 08:23:31;;;;;;;21.45;15.63;;;;;;;;;;5052185;28;20556;-82
2022/11/29 08:26:01;;;;;;;22.52;14.93;;;;;;;;;;5041078;28;20025;-81
2022/11/29 08:28:27;;;;;;;22.85;14.73;;;;;;;;;;5051192;28;20107;-80
2022/11/29 08:31:04;;;;;;;24.88;15.23;;;;;;;;;;5051958;28;20112;-81
2022/11/29 08:33:30;;;;;;;28.02;15.20;;;;;;;;;;5052830;28;20033;-80
2022/11/29 08:35:56;;;;;;;24.73;16.23;;;;;;;;;;5051636;28;20494;-80
2022/11/29 08:38:22;;;;;;;21.90;15.75;;;;;;;;;;5058815;28;20033;-80
2022/11/29 08:40:48;;;;;;;27.23;18.15;;;;;;;;;;5044315;28;20036;-81
2022/11/29 08:43:14;;;;;;;26.20;17.48;;;;;;;;;;5051408;28;20060;-80
2022/11/29 08:45:40;;;;;;;19.45;15.55;;;;;;;;;;5045646;28;20029;-80
2022/11/29 08:48:06;;;;;;;24.35;15.48;;;;;;;;;;5047796;28;20078;-80
2022/11/29 08:50:32;;;;;;;34.00;24.25;;;;;;;;;;5050728;28;20517;-81
2022/11/29 08:55:45;;;;;;;29.63;20.77;;;;;;;;;;5051980;28;20508;-81
2022/11/29 08:58:12;;;;;;;24.63;17.98;;;;;;;;;;5051767;28;20477;-80
2022/11/29 09:00:38;;;;;;;29.70;21.88;;;;;;;;;;5033820;28;20182;-81
2022/11/29 09:05:50;;;;;;;30.80;18.33;;;;;;;;;;5054169;28;20060;-80
2022/11/29 09:08:16;;;;;;;25.88;19.05;;;;;;;;;;5060317;28;20541;-80
2022/11/29 09:10:42;;;;;;;26.88;19.15;;;;;;;;;;5036130;28;20036;-80
2022/11/29 10:02:21;;;;;;;17.10;10.52;;;;;;;;;;5047570;28;20067;-81
2022/11/29 10:04:53;;;;;;;17.50;10.73;;;;;;;;;;5050846;28;20053;-81
2022/11/29 10:07:34;;;;;;;16.15;9.90;;;;;;;;;;5052264;28;20102;-81
2022/11/29 10:10:08;;;;;;;19.63;11.00;;;;;;;;;;5051792;28;20496;-81
2022/11/29 10:12:41;;;;;;;17.38;9.73;;;;;;;;;;5054116;28;20040;-80
2022/11/29 10:15:17;;;;;;;15.20;9.85;;;;;;;;;;5054452;28;20032;-81
2022/11/29 10:17:52;;;;;;;15.00;9.07;;;;;;;;;;5043829;28;20382;-80
2022/11/29 10:20:21;;;;;;;13.30;8.77;;;;;;;;;;5041483;28;20045;-81
2022/11/29 10:22:54;;;;;;;14.57;6.90;;;;;;;;;;5045232;28;20032;-81
2022/11/29 10:25:23;;;;;;;9.73;5.40;;;;;;;;;;5033876;28;20045;-81
2022/11/29 10:27:50;;;;;;;10.30;4.72;;;;;;;;;;5035668;28;20032;-80
2022/11/29 10:30:16;;;;;;;11.85;6.05;;;;;;;;;;5051130;28;20087;-81
2022/11/29 10:32:44;;;;;;;11.02;4.53;;;;;;;;;;5053638;28;20033;-81
2022/11/29 10:35:18;;;;;;;8.85;4.45;;;;;;;;;;5048818;28;20033;-81
2022/11/29 10:37:44;;;;;;;9.55;4.35;;;;;;;;;;5050608;28;20060;-81
2022/11/29 10:40:16;;;;;;;5.70;3.15;;;;;;;;;;5039123;28;20569;-81
2022/11/29 10:42:48;;;;;;;10.90;3.33;;;;;;;;;;5055371;28;20371;-80
2022/11/29 10:45:20;;;;;;;9.05;2.95;;;;;;;;;;5049351;28;20037;-81
2022/11/29 10:47:47;;;;;;;6.97;2.80;;;;;;;;;;5050630;28;20032;-81
2022/11/29 10:50:18;;;;;;;5.72;2.30;;;;;;;;;;5051393;28;20037;-81
2022/11/29 10:52:44;;;;;;;7.93;2.63;;;;;;;;;;5047328;28;20033;-80
2022/11/29 10:55:12;;;;;;;8.20;3.35;;;;;;;;;;5048623;28;20029;-81
2022/11/29 10:57:58;;;;;;;9.38;3.15;;;;;;;;;;5056315;28;20025;-81
2022/11/29 11:00:25;;;;;;;8.25;3.20;;;;;;;;;;5038203;28;20730;-81
2022/11/29 11:02:51;;;;;;;7.43;2.97;;;;;;;;;;5053327;28;20060;-81
2022/11/29 11:05:24;;;;;;;8.60;3.42;;;;;;;;;;5045453;28;20164;-81
2022/11/29 11:07:57;;;;;;;7.80;3.53;;;;;;;;;;5039814;28;20549;-81
2022/11/29 11:10:26;;;;;;;9.00;3.25;;;;;;;;;;5048450;28;20033;-80
2022/11/29 11:13:06;;;;;;;7.03;3.13;;;;;;;;;;5047907;28;20056;-81
2022/11/29 11:15:33;;;;;;;6.80;2.72;;;;;;;;;;5039392;28;20025;-81
2022/11/29 11:18:04;;;;;;;9.15;3.30;;;;;;;;;;5049217;28;20025;-81
2022/11/29 11:20:31;;;;;;;6.20;2.30;;;;;;;;;;5047260;28;20064;-81
2022/11/29 11:22:59;;;;;;;8.52;2.80;;;;;;;;;;5043120;28;20033;-81
2022/11/29 11:25:28;;;;;;;4.50;1.67;;;;;;;;;;5050231;28;20033;-81
2022/11/29 11:27:55;;;;;;;6.63;2.42;;;;;;;;;;5046897;28;20033;-81
2022/11/29 11:30:21;;;;;;;5.50;2.10;;;;;;;;;;5046026;28;20048;-80
2022/11/29 11:33:08;;;;;;;9.65;1.88;;;;;;;;;;5034266;28;20112;-81
2022/11/29 11:35:36;;;;;;;4.72;1.77;;;;;;;;;;5038340;28;20144;-81
2022/11/29 11:38:02;;;;;;;6.90;2.08;;;;;;;;;;5044974;28;20390;-81
2022/11/29 11:40:29;;;;;;;4.95;2.03;;;;;;;;;;5030137;28;20045;-81
2022/11/29 11:43:00;;;;;;;5.72;1.63;;;;;;;;;;5045101;28;20028;-81
2022/11/29 11:45:31;;;;;;;6.18;1.50;;;;;;;;;;5030136;28;20044;-81
2022/11/29 11:47:59;;;;;;;3.63;1.17;;;;;;;;;;5050959;28;20070;-81
2022/11/29 11:50:40;;;;;;;6.43;1.60;;;;;;;;;;5050208;28;20033;-81
2022/11/29 11:53:24;;;;;;;8.25;2.33;;;;;;;;;;5052994;28;20040;-81
2022/11/29 11:55:53;;;;;;;4.78;1.30;;;;;;;;;;5043699;28;20071;-81
2022/11/29 11:58:23;;;;;;;4.97;1.80;;;;;;;;;;5051188;28;20075;-81
2022/11/29 12:00:51;;;;;;;4.97;1.60;;;;;;;;;;5047820;28;20071;-81
2022/11/29 12:03:25;;;;;;;8.45;2.83;;;;;;;;;;5038328;28;20028;-81
2022/11/29 12:05:53;;;;;;;6.10;2.05;;;;;;;;;;5049345;28;20064;-80
2022/11/29 12:08:19;;;;;;;7.10;2.05;;;;;;;;;;5047366;28;20711;-81
2022/11/29 12:10:46;;;;;;;6.32;2.03;;;;;;;;;;5034176;28;20123;-81
2022/11/29 12:13:25;;;;;;;6.70;2.22;;;;;;;;;;5052701;28;20033;-81
2022/11/29 12:15:51;;;;;;;7.35;2.30;;;;;;;;;;5050347;28;20029;-81
2022/11/29 12:18:30;;;;;;;3.97;1.42;;;;;;;;;;5025425;28;20033;-80
2022/11/29 12:21:02;;;;;;;4.50;1.70;;;;;;;;;;5049967;28;20044;-81
2022/11/29 12:23:28;;;;;;;;;;;;;;;;;;5028746;28;20040;-80
2022/11/29 12:26:05;;;;;;;6.85;2.80;;;;;;;;;;5047311;28;19912;-80
2022/11/29 12:28:35;;;;;;;8.52;5.22;;;;;;;;;;5048591;28;20033;-81
2022/11/29 12:31:20;;;;;;;4.95;1.80;;;;;;;;;;5026239;28;20041;-81
2022/11/29 12:34:04;;;;;;;6.95;3.78;;;;;;;;;;5050953;28;20663;-80
2022/11/29 12:36:41;;;;;;;5.97;2.53;;;;;;;;;;5053632;28;20626;-81
2022/11/29 12:39:16;;;;;;;8.57;4.25;;;;;;;;;;5033654;28;20040;-81
2022/11/29 12:41:42;;;;;;;13.93;7.30;;;;;;;;;;5033519;28;20037;-81
2022/11/29 12:44:27;;;;;;;18.63;11.43;;;;;;;;;;5050170;28;20040;-80
2022/11/29 12:47:08;;;;;;;7.07;3.72;;;;;;;;;;5036850;28;20040;-80
2022/11/29 12:49:42;;;;;;;15.30;4.10;;;;;;;;;;5049925;28;20042;-81
2022/11/29 12:52:18;;;;;;;8.60;3.65;;;;;;;;;;5051800;28;20037;-81
2022/11/29 12:54:55;;;;;;;9.27;4.32;;;;;;;;;;5047073;28;20096;-81
2022/11/29 12:57:21;;;;;;;11.00;5.18;;;;;;;;;;5049656;28;20033;-80
2022/11/29 13:00:08;;;;;;;7.85;4.82;;;;;;;;;;5051925;28;20814;-80
2022/11/29 13:02:34;;;;;;;10.55;6.25;;;;;;;;;;5051200;28;20513;-81
2022/11/29 13:05:12;;;;;;;9.52;4.90;;;;;;;;;;5053055;28;20058;-80
2022/11/29 13:07:50;;;;;;;10.52;5.35;;;;;;;;;;5045207;28;20044;-80
2022/11/29 13:10:19;;;;;;;12.40;6.97;;;;;;;;;;5060347;28;20037;-81
2022/11/29 13:12:51;;;;;;;10.75;8.02;;;;;;;;;;5047948;28;20100;-81
2022/11/29 13:15:22;;;;;;;12.77;7.85;;;;;;;;;;5050767;28;20650;-81
2022/11/29 13:17:55;;;;;;;10.88;6.38;;;;;;;;;;5051574;28;20028;-81
2022/11/29 13:20:38;;;;;;;9.07;5.60;;;;;;;;;;5024122;28;20072;-80
2022/11/29 13:23:19;;;;;;;9.95;5.55;;;;;;;;;;5034724;28;20040;-80
2022/11/29 13:25:49;;;;;;;8.85;5.60;;;;;;;;;;5025287;28;20036;-81
2022/11/29 13:28:23;;;;;;;10.20;5.75;;;;;;;;;;5056053;28;20052;-81
2022/11/29 13:30:50;;;;;;;11.30;6.47;;;;;;;;;;5042060;28;20033;-80
2022/11/29 13:33:16;;;;;;;11.10;6.22;;;;;;;;;;5042305;28;20024;-81
2022/11/29 13:36:00;;;;;;;9.82;5.70;;;;;;;;;;5043490;28;20029;-81
2022/11/29 13:38:32;;;;;;;13.68;6.35;;;;;;;;;;5041875;28;20594;-81
2022/11/29 13:41:01;;;;;;;10.07;5.63;;;;;;;;;;5040971;28;20393;-80
2022/11/29 13:43:27;;;;;;;13.40;6.00;;;;;;;;;;5047890;28;20033;-80
2022/11/29 13:46:05;;;;;;;10.98;5.70;;;;;;;;;;5051453;28;20041;-81
2022/11/29 13:48:34;;;;;;;15.10;6.53;;;;;;;;;;5047761;28;20029;-80
2022/11/29 14:03:41;;;;;;;12.63;8.07;;;;;;;;;;5077026;27;20394;-79
2022/11/29 14:06:08;;;;;;;37.47;22.70;;;;;;;;;;5072000;28;20359;-80
2022/11/29 14:08:36;;;;;;;39.83;23.80;;;;;;;;;;5065901;28;20025;-80
2022/11/29 14:11:28;;;;;;;33.92;20.92;;;;;;;;;;5065360;28;20107;-79
2022/11/29 14:13:58;;;;;;;20.05;12.77;;;;;;;;;;5033668;28;20045;-80
2022/11/29 14:16:24;;;;;;;19.73;12.93;;;;;;;;;;5058925;28;20025;-81
2022/11/29 14:19:03;;;;;;;61.15;38.42;;;;;;;;;;5062610;28;20029;-80
2022/11/29 14:21:47;;;;;;;19.48;12.13;;;;;;;;;;5065425;28;20039;-79
2022/11/29 14:24:32;;;;;;;32.40;21.58;;;;;;;;;;5064212;28;20063;-79
2022/11/29 14:27:18;;;;;;;17.75;10.43;;;;;;;;;;5065413;28;20055;-80
2022/11/29 14:29:51;;;;;;;49.05;30.45;;;;;;;;;;5059649;28;20425;-80
2022/11/29 14:32:26;;;;;;;18.30;12.15;;;;;;;;;;5062452;28;20035;-79
2022/11/29 14:34:56;;;;;;;12.45;7.72;;;;;;;;;;5075187;28;20512;-79
2022/11/29 14:37:29;;;;;;;42.08;27.05;;;;;;;;;;5066894;28;20037;-80
2022/11/29 14:39:57;;;;;;;31.63;20.90;;;;;;;;;;5065425;28;20025;-80
2022/11/29 14:42:25;;;;;;;40.08;24.83;;;;;;;;;;5061956;28;20067;-79
2022/11/29 14:44:57;;;;;;;31.65;20.17;;;;;;;;;;5059589;28;20041;-80
2022/11/29 14:47:28;;;;;;;34.67;20.88;;;;;;;;;;5056096;28;20475;-80
2022/11/29 14:49:56;;;;;;;11.77;6.13;;;;;;;;;;5057424;28;20102;-79
2022/11/29 14:52:26;;;;;;;13.00;7.80;;;;;;;;;;5066499;28;20068;-80
2022/11/29 14:54:56;;;;;;;14.43;8.18;;;;;;;;;;5064094;28;20021;-80
2022/11/29 14:57:41;;;;;;;10.07;6.30;;;;;;;;;;5060794;28;20041;-79
2022/11/29 15:00:13;;;;;;;23.60;13.35;;;;;;;;;;5062381;28;20382;-80
2022/11/29 15:02:41;;;;;;;14.20;7.60;;;;;;;;;;5062547;28;20060;-80
2022/11/29 15:05:19;;;;;;;10.63;5.80;;;;;;;;;;5028145;28;20170;-80
2022/11/29 15:07:55;;;;;;;38.53;24.38;;;;;;;;;;5051027;28;20041;-80
2022/11/29 15:10:26;;;;;;;31.17;17.02;;;;;;;;;;5051249;28;20055;-79
2022/11/29 15:12:52;;;;;;;14.20;7.45;;;;;;;;;;5026745;28;20395;-80
2022/11/29 15:15:37;;;;;;;12.38;6.32;;;;;;;;;;5065526;28;20032;-79
2022/11/29 15:18:20;;;;;;;9.65;6.90;;;;;;;;;;5050821;28;20025;-80
2022/11/29 15:20:50;;;;;;;14.32;8.02;;;;;;;;;;5028035;28;20573;-80
2022/11/29 15:23:17;;;;;;;12.38;7.07;;;;;;;;;;5032496;28;20095;-79
2022/11/29 15:25:51;;;;;;;12.63;6.68;;;;;;;;;;5048085;28;20519;-80
2022/11/29 15:28:25;;;;;;;11.40;6.72;;;;;;;;;;5050152;28;20079;-80
2022/11/29 15:31:01;;;;;;;7.95;5.00;;;;;;;;;;5049287;28;20099;-79
2022/11/29 15:33:28;;;;;;;7.55;4.72;;;;;;;;;;5030084;28;20060;-79
2022/11/29 15:35:56;;;;;;;9.52;5.10;;;;;;;;;;5034238;28;20107;-80
2022/11/29 15:38:23;;;;;;;13.32;8.43;;;;;;;;;;5025111;28;20048;-80
2022/11/29 15:40:53;;;;;;;14.45;9.30;;;;;;;;;;5032857;28;20071;-80
2022/11/29 15:43:25;;;;;;;11.50;7.68;;;;;;;;;;5047355;28;20025;-80
2022/11/29 15:45:53;;;;;;;14.75;10.13;;;;;;;;;;5051365;28;20100;-80
2022/11/29 15:48:19;;;;;;;12.75;6.65;;;;;;;;;;5047310;28;20050;-79
2022/11/29 15:51:05;;;;;;;9.90;5.38;;;;;;;;;;5050660;28;20029;-80
2022/11/29 15:53:34;;;;;;;8.35;4.78;;;;;;;;;;5035672;28;20618;-79
2022/11/29 15:56:02;;;;;;;7.63;4.60;;;;;;;;;;5050737;28;20050;-80
2022/11/29 15:58:30;;;;;;;11.95;5.90;;;;;;;;;;5047791;28;20036;-79
2022/11/29 16:00:56;;;;;;;14.38;7.45;;;;;;;;;;5048782;28;20100;-79
2022/11/29 16:03:28;;;;;;;13.93;8.00;;;;;;;;;;5019361;28;20068;-79
2022/11/29 16:06:15;;;;;;;14.15;7.80;;;;;;;;;;5031025;28;20028;-79